createdAt,value
2019-02-10T00:00:42.041Z,14.14
2019-02-10T00:03:18.289Z,14.07
2019-02-10T00:05:47.740Z,14.10
2019-02-10T00:08:20.633Z,13.97
2019-02-10T00:10:53.098Z,14.02
2019-02-10T00:13:29.069Z,14.04
2019-02-10T00:16:02.164Z,13.99
2019-02-10T00:18:37.220Z,14.05
2019-02-10T00:21:12.229Z,13.94
2019-02-10T00:23:43.769Z,14.06
2019-02-10T00:26:17.249Z,14.04
2019-02-10T00:28:54.450Z,14.05
2019-02-10T00:31:25.794Z,13.95
2019-02-10T00:34:00.472Z,13.51
2019-02-10T00:36:33.410Z,13.41
2019-02-10T00:39:06.806Z,13.60
2019-02-10T00:41:38.124Z,13.49
2019-02-10T00:44:08.716Z,13.35
2019-02-10T00:46:45.096Z,13.29
2019-02-10T00:49:18.094Z,13.17
2019-02-10T00:51:52.991Z,13.14
2019-02-10T00:54:25.102Z,13.10
2019-02-10T00:57:00.428Z,13.21
2019-02-10T00:59:38.236Z,13.50
2019-02-10T01:02:09.554Z,13.45
2019-02-10T01:04:40.972Z,13.42
2019-02-10T01:07:13.173Z,13.36
2019-02-10T01:09:44.555Z,13.51
2019-02-10T01:12:15.981Z,13.73
2019-02-10T01:14:47.133Z,13.72
2019-02-10T01:17:20.167Z,13.73
2019-02-10T01:19:54.146Z,13.63
2019-02-10T01:22:27.636Z,13.78
2019-02-10T01:24:58.807Z,13.96
2019-02-10T01:27:30.430Z,14.02
2019-02-10T01:30:01.646Z,14.00
2019-02-10T01:32:33.536Z,14.23
2019-02-10T01:35:06.821Z,14.28
2019-02-10T01:37:45.854Z,14.00
2019-02-10T01:40:17.616Z,13.92
2019-02-10T01:42:48.638Z,13.95
2019-02-10T01:45:20.531Z,13.92
2019-02-10T01:47:52.932Z,13.98
2019-02-10T01:50:24.018Z,14.18
2019-02-10T01:52:55.219Z,14.17
2019-02-10T01:55:27.337Z,14.19
2019-02-10T01:57:59.207Z,14.26
2019-02-10T02:00:30.780Z,14.26
2019-02-10T02:03:06.277Z,14.23
2019-02-10T02:05:39.534Z,14.24
2019-02-10T02:08:11.504Z,14.21
2019-02-10T02:10:43.810Z,14.14
2019-02-10T02:13:14.792Z,14.15
2019-02-10T02:15:49.064Z,14.15
2019-02-10T02:18:22.432Z,14.24
2019-02-10T02:20:53.537Z,14.27
2019-02-10T02:23:25.839Z,14.28
2019-02-10T02:25:58.099Z,14.28
2019-02-10T02:28:30.074Z,14.34
2019-02-10T02:31:01.007Z,14.52
2019-02-10T02:33:34.528Z,14.59
2019-02-10T02:36:06.031Z,14.50
2019-02-10T02:38:39.415Z,14.69
2019-02-10T02:41:10.418Z,14.68
2019-02-10T02:43:41.832Z,14.77
2019-02-10T02:46:13.850Z,14.93
2019-02-10T02:48:45.847Z,15.02
2019-02-10T02:51:19.823Z,15.16
2019-02-10T02:53:57.475Z,14.99
2019-02-10T02:56:29.573Z,15.14
2019-02-10T02:59:02.074Z,15.13
2019-02-10T03:01:34.017Z,14.74
2019-02-10T03:04:05.208Z,14.65
2019-02-10T03:06:48.992Z,14.93
2019-02-10T03:09:21.531Z,14.96
2019-02-10T03:11:56.114Z,15.25
2019-02-10T03:14:28.045Z,15.62
2019-02-10T03:17:01.386Z,15.71
2019-02-10T03:19:33.064Z,15.59
2019-02-10T03:22:04.110Z,15.82
2019-02-10T03:24:36.343Z,15.61
2019-02-10T03:27:07.380Z,15.82
2019-02-10T03:29:39.435Z,15.61
2019-02-10T03:32:12.672Z,15.34
2019-02-10T03:34:52.457Z,15.05
2019-02-10T03:37:48.888Z,14.99
2019-02-10T03:40:28.652Z,14.79
2019-02-10T03:43:06.261Z,14.41
2019-02-10T03:45:39.597Z,14.31
2019-02-10T03:48:17.078Z,14.35
2019-02-10T03:50:59.528Z,14.27
2019-02-10T03:53:45.534Z,14.27
2019-02-10T03:56:31.133Z,14.22
2019-02-10T03:59:10.305Z,14.32
2019-02-10T04:01:41.952Z,14.42
2019-02-10T04:04:14.486Z,14.37
2019-02-10T04:06:45.674Z,14.39
2019-02-10T04:09:16.930Z,14.69
2019-02-10T04:11:49.201Z,14.55
2019-02-10T04:14:25.128Z,14.33
2019-02-10T04:16:56.672Z,14.24
2019-02-10T04:19:27.936Z,14.22
2019-02-10T04:22:00.107Z,14.36
2019-02-10T04:24:31.679Z,14.46
2019-02-10T04:27:04.825Z,14.48
2019-02-10T04:29:37.191Z,14.31
2019-02-10T04:32:09.683Z,14.14
2019-02-10T04:34:42.247Z,14.05
2019-02-10T04:37:14.035Z,14.05
2019-02-10T04:39:45.702Z,13.96
2019-02-10T04:42:19.152Z,13.96
2019-02-10T04:44:49.995Z,14.01
2019-02-10T04:47:31.414Z,13.99
2019-02-10T04:50:09.859Z,13.62
2019-02-10T04:52:54.451Z,13.66
2019-02-10T04:55:30.535Z,13.78
2019-02-10T04:58:03.102Z,14.10
2019-02-10T05:00:35.830Z,14.04
2019-02-10T05:03:06.210Z,13.90
2019-02-10T05:05:36.870Z,13.77
2019-02-10T05:08:09.168Z,13.74
2019-02-10T05:10:41.023Z,13.94
2019-02-10T05:13:15.768Z,13.95
2019-02-10T05:15:50.049Z,14.13
2019-02-10T05:18:22.512Z,14.12
2019-02-10T05:20:58.430Z,14.06
2019-02-10T05:23:33.672Z,14.14
2019-02-10T05:26:04.754Z,14.34
2019-02-10T05:28:35.127Z,14.34
2019-02-10T05:31:07.836Z,14.18
2019-02-10T05:33:38.634Z,14.13
2019-02-10T05:36:11.678Z,14.33
2019-02-10T05:38:43.763Z,14.48
2019-02-10T05:41:16.198Z,14.33
2019-02-10T05:43:47.364Z,14.53
2019-02-10T05:46:18.758Z,14.43
2019-02-10T05:48:52.112Z,14.59
2019-02-10T05:51:22.439Z,14.47
2019-02-10T05:53:53.406Z,14.31
2019-02-10T05:56:32.304Z,14.35
2019-02-10T05:59:03.035Z,14.56
2019-02-10T06:02:43.479Z,14.63
2019-02-10T06:05:20.867Z,14.58
2019-02-10T06:07:52.535Z,14.82
2019-02-10T06:10:22.955Z,15.01
2019-02-10T06:12:54.722Z,14.83
2019-02-10T06:15:28.887Z,15.12
2019-02-10T06:18:02.903Z,14.97
2019-02-10T06:20:37.507Z,14.81
2019-02-10T06:23:10.071Z,14.53
2019-02-10T06:25:44.006Z,14.38
2019-02-10T06:28:16.358Z,14.28
2019-02-10T06:31:03.705Z,14.33
2019-02-10T06:33:35.663Z,14.30
2019-02-10T06:36:07.294Z,14.55
2019-02-10T06:38:39.142Z,14.76
2019-02-10T06:41:10.304Z,14.69
2019-02-10T06:43:41.861Z,14.89
2019-02-10T06:46:15.987Z,14.93
2019-02-10T06:48:47.879Z,14.97
2019-02-10T06:51:20.341Z,14.97
2019-02-10T06:53:50.985Z,14.98
2019-02-10T06:56:22.360Z,14.96
2019-02-10T06:58:54.498Z,15.03
2019-02-10T07:01:47.902Z,14.85
2019-02-10T07:04:31.232Z,15.01
2019-02-10T07:07:07.769Z,14.97
2019-02-10T07:09:43.354Z,14.84
2019-02-10T07:12:58.818Z,14.97
2019-02-10T07:16:24.110Z,15.01
2019-02-10T07:19:32.844Z,15.18
2019-02-10T07:22:26.960Z,15.27
2019-02-10T07:25:41.509Z,15.25
2019-02-10T07:28:53.427Z,15.31
2019-02-10T07:31:33.796Z,15.26
2019-02-10T07:34:48.029Z,15.30
2019-02-10T07:38:02.332Z,15.21
2019-02-10T07:41:17.598Z,15.33
2019-02-10T07:44:17.022Z,15.30
2019-02-10T07:47:37.899Z,15.01
2019-02-10T07:50:51.568Z,14.98
2019-02-10T07:54:03.623Z,15.18
2019-02-10T07:57:12.123Z,15.06
2019-02-10T08:00:18.516Z,15.01
2019-02-10T08:03:42.837Z,14.83
2019-02-10T08:06:35.658Z,14.87
2019-02-10T08:09:58.507Z,14.82
2019-02-10T08:12:59.816Z,14.82
2019-02-10T08:16:26.236Z,14.77
2019-02-10T08:19:39.365Z,14.79
2019-02-10T08:22:52.294Z,14.82
2019-02-10T08:26:39.472Z,14.85
2019-02-10T08:29:53.244Z,14.96
2019-02-10T08:32:42.587Z,14.96
2019-02-10T08:35:28.539Z,15.07
2019-02-10T08:38:38.289Z,15.09
2019-02-10T08:41:38.264Z,15.07
2019-02-10T08:44:52.500Z,15.01
2019-02-10T08:47:58.718Z,15.10
2019-02-10T08:51:20.785Z,14.98
2019-02-10T08:53:57.256Z,14.95
2019-02-10T08:56:49.357Z,15.19
2019-02-10T08:59:22.024Z,15.08
2019-02-10T09:01:54.261Z,15.06
2019-02-10T09:04:29.785Z,15.12
2019-02-10T09:07:08.602Z,15.09
2019-02-10T09:09:40.919Z,15.17
2019-02-10T09:12:14.343Z,15.47
2019-02-10T09:14:48.630Z,15.36
2019-02-10T09:17:20.960Z,15.39
2019-02-10T09:20:00.885Z,15.30
2019-02-10T09:22:33.256Z,15.38
2019-02-10T09:25:04.760Z,15.58
2019-02-10T09:27:35.943Z,15.73
2019-02-10T09:30:23.715Z,15.73
2019-02-10T09:33:04.498Z,15.81
2019-02-10T09:35:38.415Z,15.93
2019-02-10T09:38:27.628Z,15.87
2019-02-10T09:41:00.272Z,16.04
2019-02-10T09:43:34.526Z,16.12
2019-02-10T09:46:12.060Z,16.19
2019-02-10T09:48:46.229Z,16.15
2019-02-10T09:51:27.158Z,16.24
2019-02-10T09:54:04.464Z,16.24
2019-02-10T09:56:47.022Z,16.15
2019-02-10T09:59:19.815Z,16.13
2019-02-10T10:01:55.201Z,16.31
2019-02-10T10:04:47.292Z,16.36
2019-02-10T10:07:22.904Z,16.34
2019-02-10T10:09:58.013Z,16.13
2019-02-10T10:12:31.379Z,16.08
2019-02-10T10:15:15.947Z,16.10
2019-02-10T10:18:15.016Z,16.23
2019-02-10T10:20:54.372Z,16.27
2019-02-10T10:23:29.484Z,15.98
2019-02-10T10:26:05.630Z,15.84
2019-02-10T10:28:38.091Z,15.88
2019-02-10T10:31:10.411Z,15.85
2019-02-10T10:33:56.263Z,15.86
2019-02-10T10:36:59.192Z,16.03
2019-02-10T10:40:12.054Z,16.04
2019-02-10T10:42:54.228Z,15.98
2019-02-10T10:45:45.531Z,16.05
2019-02-10T10:48:56.767Z,15.97
2019-02-10T10:51:20.168Z,16.04
2019-02-10T10:53:55.756Z,15.90
2019-02-10T10:56:31.531Z,15.74
2019-02-10T10:59:05.345Z,15.82
2019-02-10T11:01:48.779Z,15.84
2019-02-10T11:04:29.025Z,15.91
2019-02-10T11:07:08.776Z,16.18
2019-02-10T11:09:42.245Z,16.05
2019-02-10T11:12:14.257Z,15.93
2019-02-10T11:14:45.646Z,15.84
2019-02-10T11:17:26.608Z,16.01
2019-02-10T11:20:01.728Z,16.01
2019-02-10T11:22:39.313Z,15.97
2019-02-10T11:25:27.699Z,16.07
2019-02-10T11:28:01.896Z,15.98
2019-02-10T11:30:44.173Z,16.15
2019-02-10T11:33:16.390Z,16.25
2019-02-10T11:35:50.245Z,16.27
2019-02-10T11:38:24.584Z,16.40
2019-02-10T11:41:03.517Z,16.31
2019-02-10T11:43:40.188Z,16.34
2019-02-10T11:46:16.591Z,16.34
2019-02-10T11:48:51.270Z,16.24
2019-02-10T11:51:30.851Z,16.22
2019-02-10T11:54:06.230Z,16.25
2019-02-10T11:56:37.387Z,16.23
2019-02-10T11:59:14.471Z,15.97
2019-02-10T12:01:52.576Z,16.06
2019-02-10T12:04:31.799Z,16.06
2019-02-10T12:07:05.792Z,16.06
2019-02-10T12:09:41.393Z,16.07
2019-02-10T12:12:14.715Z,16.23
2019-02-10T12:14:49.792Z,16.05
2019-02-10T12:17:23.303Z,16.12
2019-02-10T12:19:58.210Z,16.01
2019-02-10T12:22:33.042Z,16.02
2019-02-10T12:25:04.592Z,16.24
2019-02-10T12:27:37.309Z,16.31
2019-02-10T12:30:18.468Z,16.32
2019-02-10T12:32:49.699Z,16.32
2019-02-10T12:35:27.029Z,16.18
2019-02-10T12:38:04.297Z,16.10
2019-02-10T12:40:38.825Z,15.86
2019-02-10T12:43:12.513Z,15.92
2019-02-10T12:45:44.615Z,16.18
2019-02-10T12:48:25.481Z,16.00
2019-02-10T12:50:57.878Z,15.98
2019-02-10T12:53:36.264Z,16.14
2019-02-10T12:56:09.288Z,15.95
2019-02-10T12:58:40.798Z,15.96
2019-02-10T13:01:17.661Z,15.86
2019-02-10T13:04:04.056Z,15.58
2019-02-10T13:06:40.437Z,15.62
2019-02-10T13:09:15.330Z,15.51
2019-02-10T13:11:58.302Z,15.21
2019-02-10T13:14:37.705Z,15.29
2019-02-10T13:17:28.304Z,15.16
2019-02-10T13:23:05.267Z,14.81
2019-02-10T13:25:46.792Z,14.75
2019-02-10T13:28:27.891Z,14.48
2019-02-10T13:31:26.761Z,14.63
2019-02-10T13:34:05.640Z,14.78
2019-02-10T13:36:42.531Z,14.70
2019-02-10T13:39:39.977Z,14.56
2019-02-10T13:42:16.733Z,14.80
2019-02-10T13:45:05.447Z,14.65
2019-02-10T13:47:44.922Z,14.66
2019-02-10T13:53:36.331Z,14.51
2019-02-10T13:56:14.289Z,14.55
2019-02-10T13:58:49.391Z,14.76
2019-02-10T14:01:41.425Z,14.67
2019-02-10T14:04:16.508Z,14.55
2019-02-10T14:06:52.902Z,14.75
2019-02-10T14:09:26.343Z,14.57
2019-02-10T14:11:57.759Z,14.44
2019-02-10T14:14:30.110Z,14.32
2019-02-10T14:17:15.588Z,14.10
2019-02-10T14:19:51.094Z,14.32
2019-02-10T14:22:27.828Z,14.30
2019-02-10T14:25:06.183Z,14.34
2019-02-10T14:27:44.422Z,14.23
2019-02-10T14:30:28.826Z,14.38
2019-02-10T14:33:00.813Z,14.63
2019-02-10T14:35:36.946Z,14.49
2019-02-10T14:38:09.666Z,14.32
2019-02-10T14:40:43.771Z,14.21
2019-02-10T14:43:14.944Z,14.10
2019-02-10T14:45:53.413Z,13.95
2019-02-10T14:48:25.719Z,13.83
2019-02-10T14:50:57.966Z,13.73
2019-02-10T14:53:33.488Z,13.98
2019-02-10T14:56:08.071Z,13.91
2019-02-10T14:58:45.494Z,14.01
2019-02-10T15:01:21.433Z,14.09
2019-02-10T15:04:02.779Z,14.12
2019-02-10T15:06:36.772Z,14.11
2019-02-10T15:09:11.550Z,14.26
2019-02-10T15:11:57.986Z,14.26
2019-02-10T15:14:32.996Z,14.35
2019-02-10T15:17:08.356Z,14.30
2019-02-10T15:19:44.816Z,14.47
2019-02-10T15:22:23.998Z,14.47
2019-02-10T15:25:03.988Z,14.47
2019-02-10T15:27:42.193Z,14.44
2019-02-10T15:30:24.984Z,14.42
2019-02-10T15:33:00.431Z,14.67
2019-02-10T15:35:36.924Z,14.70
2019-02-10T15:38:11.189Z,14.62
2019-02-10T15:40:50.009Z,14.53
2019-02-10T15:43:25.546Z,14.56
2019-02-10T15:46:24.937Z,14.33
2019-02-10T15:49:07.522Z,14.33
2019-02-10T15:51:47.915Z,13.99
2019-02-10T15:54:32.360Z,13.85
2019-02-10T15:57:06.757Z,14.37
2019-02-10T15:59:59.146Z,14.37
2019-02-10T16:02:28.531Z,14.40
2019-02-10T16:05:01.595Z,14.17
2019-02-10T16:07:33.659Z,13.97
2019-02-10T16:10:12.307Z,13.77
2019-02-10T16:12:48.842Z,14.08
2019-02-10T16:15:30.505Z,14.40
2019-02-10T16:18:19.057Z,14.41
2019-02-10T16:20:53.867Z,14.06
2019-02-10T16:23:31.138Z,13.63
2019-02-10T16:26:32.292Z,13.58
2019-02-10T16:29:19.417Z,13.67
2019-02-10T16:32:05.835Z,13.66
2019-02-10T16:34:38.382Z,14.10
2019-02-10T16:37:22.670Z,14.21
2019-02-10T16:39:57.559Z,14.01
2019-02-10T16:42:30.209Z,14.00
2019-02-10T16:45:07.280Z,14.00
2019-02-10T16:47:41.138Z,13.92
2019-02-10T16:50:18.776Z,13.79
2019-02-10T16:52:58.838Z,13.66
2019-02-10T16:55:32.920Z,13.13
2019-02-10T16:58:09.682Z,13.33
2019-02-10T17:00:46.438Z,13.03
2019-02-10T17:03:23.850Z,13.28
2019-02-10T17:06:03.037Z,13.33
2019-02-10T17:08:36.483Z,13.26
2019-02-10T17:11:14.339Z,13.34
2019-02-10T17:13:45.634Z,13.19
2019-02-10T17:16:21.111Z,12.95
2019-02-10T17:19:19.913Z,12.62
2019-02-10T17:21:55.347Z,12.61
2019-02-10T17:24:34.389Z,12.62
2019-02-10T17:27:12.626Z,12.62
2019-02-10T17:29:45.439Z,12.64
2019-02-10T17:32:17.835Z,12.93
2019-02-10T17:35:00.907Z,13.12
2019-02-10T17:37:45.200Z,13.01
2019-02-10T17:40:34.973Z,12.81
2019-02-10T17:43:07.418Z,12.75
2019-02-10T17:45:55.749Z,12.54
2019-02-10T17:48:30.191Z,12.47
2019-02-10T17:51:02.470Z,12.34
2019-02-10T17:53:38.005Z,11.91
2019-02-10T17:56:12.646Z,11.75
2019-02-10T17:58:49.791Z,11.51
2019-02-10T18:01:24.193Z,11.53
2019-02-10T18:04:00.956Z,11.81
2019-02-10T18:06:33.117Z,12.01
2019-02-10T18:09:12.824Z,12.32
2019-02-10T18:11:44.377Z,12.57
2019-02-10T18:14:30.746Z,12.48
2019-02-10T18:17:25.191Z,12.36
2019-02-10T18:20:14.686Z,12.36
2019-02-10T18:23:11.818Z,12.06
2019-02-10T18:26:03.764Z,12.00
2019-02-10T18:29:03.824Z,12.07
2019-02-10T18:32:13.129Z,12.03
2019-02-10T18:35:17.818Z,12.37
2019-02-10T18:38:37.410Z,12.55
2019-02-10T18:41:54.587Z,12.76
2019-02-10T18:44:32.082Z,12.84
2019-02-10T18:47:22.389Z,13.13
2019-02-10T18:50:26.284Z,12.94
2019-02-10T18:53:27.352Z,12.71
2019-02-10T18:56:34.662Z,12.81
2019-02-10T18:59:20.354Z,12.92
2019-02-10T19:02:11.279Z,12.93
2019-02-10T19:05:10.213Z,13.00
2019-02-10T19:08:07.641Z,13.03
2019-02-10T19:10:56.322Z,12.99
2019-02-10T19:14:23.879Z,13.06
2019-02-10T19:17:22.294Z,13.00
2019-02-10T19:20:13.849Z,12.71
2019-02-10T19:23:07.699Z,12.37
2019-02-10T19:26:01.513Z,12.59
2019-02-10T19:28:58.404Z,12.46
2019-02-10T19:32:06.972Z,12.35
2019-02-10T19:34:59.975Z,12.33
2019-02-10T19:38:05.362Z,12.26
2019-02-10T19:40:57.134Z,12.52
2019-02-10T19:43:51.337Z,12.51
2019-02-10T19:46:56.989Z,12.45
2019-02-10T19:50:01.135Z,12.30
2019-02-10T19:52:54.141Z,12.21
2019-02-10T19:55:50.547Z,12.05
2019-02-10T19:58:35.905Z,11.95
2019-02-10T20:01:24.319Z,12.16
2019-02-10T20:04:24.458Z,12.11
2019-02-10T20:07:20.082Z,11.98
2019-02-10T20:10:30.523Z,11.67
2019-02-10T20:13:21.862Z,11.72
2019-02-10T20:16:15.951Z,11.56
2019-02-10T20:19:12.603Z,11.71
2019-02-10T20:22:19.655Z,11.57
2019-02-10T20:25:13.477Z,11.18
2019-02-10T20:28:03.372Z,11.20
2019-02-10T20:30:54.496Z,11.10
2019-02-10T20:33:58.804Z,11.14
2019-02-10T20:36:49.867Z,11.08
2019-02-10T20:39:45.417Z,11.34
2019-02-10T20:42:52.003Z,11.33
2019-02-10T20:45:35.415Z,11.49
2019-02-10T20:48:37.148Z,11.36
2019-02-10T20:51:39.842Z,11.37
2019-02-10T20:54:28.792Z,11.12
2019-02-10T20:57:25.862Z,11.12
2019-02-10T21:00:15.907Z,11.25
2019-02-10T21:03:12.448Z,11.43
2019-02-10T21:06:00.791Z,11.51
2019-02-10T21:08:55.598Z,11.61
2019-02-10T21:11:45.885Z,11.61
2019-02-10T21:14:41.816Z,11.72
2019-02-10T21:17:34.853Z,11.77
2019-02-10T21:20:20.793Z,11.87
2019-02-10T21:23:28.352Z,11.98
2019-02-10T21:26:25.726Z,11.66
2019-02-10T21:29:30.987Z,11.94
2019-02-10T21:32:24.481Z,12.07
2019-02-10T21:35:08.921Z,11.97
2019-02-10T21:37:57.591Z,11.96
2019-02-10T21:40:54.219Z,11.82
2019-02-10T21:43:39.937Z,12.04
2019-02-10T21:46:32.010Z,11.85
2019-02-10T21:49:17.542Z,12.02
2019-02-10T21:51:52.465Z,11.96
2019-02-10T21:54:37.354Z,11.78
2019-02-10T21:57:09.493Z,11.74
2019-02-10T21:59:48.868Z,12.12
2019-02-10T22:02:34.922Z,12.04
2019-02-10T22:05:11.452Z,12.04
2019-02-10T22:07:45.230Z,11.85
2019-02-10T22:10:24.308Z,11.98
2019-02-10T22:12:59.278Z,11.94
2019-02-10T22:16:25.387Z,11.70
2019-02-10T22:19:33.809Z,11.72
2019-02-10T22:22:29.972Z,11.95
2019-02-10T22:31:06.507Z,11.22
2019-02-10T22:33:51.300Z,11.24
2019-02-10T22:36:35.583Z,11.32
2019-02-10T22:39:37.654Z,11.09
2019-02-10T22:42:18.041Z,11.24
2019-02-10T22:45:07.404Z,11.25
2019-02-10T22:47:44.553Z,11.47
2019-02-10T22:50:16.445Z,11.58
2019-02-10T22:52:51.367Z,11.98
2019-02-10T22:55:26.563Z,12.08
2019-02-10T22:57:58.296Z,11.57
2019-02-10T23:00:51.059Z,11.27
2019-02-10T23:03:22.669Z,11.32
2019-02-10T23:05:54.791Z,11.40
2019-02-10T23:08:30.863Z,11.46
2019-02-10T23:11:01.733Z,11.93
2019-02-10T23:13:34.343Z,12.08
2019-02-10T23:16:19.094Z,11.96
2019-02-10T23:18:52.768Z,11.73
2019-02-10T23:21:26.407Z,11.57
2019-02-10T23:23:57.689Z,11.53
2019-02-10T23:26:29.831Z,11.45
2019-02-10T23:29:04.255Z,11.27
2019-02-10T23:31:43.004Z,11.22
2019-02-10T23:34:15.919Z,11.06
2019-02-10T23:36:55.791Z,11.13
2019-02-10T23:39:38.545Z,11.13
2019-02-10T23:42:18.650Z,11.33
2019-02-10T23:44:53.089Z,10.88
2019-02-10T23:47:30.745Z,11.26
2019-02-10T23:50:03.502Z,11.47
2019-02-10T23:52:35.798Z,11.23
2019-02-10T23:55:07.928Z,10.63
2019-02-10T23:57:43.930Z,10.63
